Time;durP1;ratioP1;P1;durP2;ratioP2;P2;SDS_P1;SDS_P2;PMS_P1;PMS_P2;Temp;Humidity;BMP_temperature;BMP_pressure;BME280_temperature;BME280_humidity;BME280_pressure;Samples;Min_cycle;Max_cycle;Signal;HPM_P1;HPM_P2
2022/01/05 00:00:15;;;;;;;19.70;3.27;;;;;;;-145.18;100.00;47615.69;4988688;28;20046;-72
2022/01/05 00:02:40;;;;;;;7.97;1.73;;;;;;;-145.18;100.00;47617.66;4987665;28;20287;-72
2022/01/05 00:05:07;;;;;;;6.93;1.70;;;;;;;-145.18;100.00;47605.94;4987891;28;20264;-72
2022/01/05 00:07:32;;;;;;;6.77;2.27;;;;;;;-145.18;100.00;47613.75;5002941;28;20030;-73
2022/01/05 00:09:58;;;;;;;12.90;2.20;;;;;;;-145.18;100.00;47633.28;4987466;28;20296;-72
2022/01/05 00:12:24;;;;;;;6.90;1.30;;;;;;;-145.18;100.00;47645.00;4987859;28;20053;-73
2022/01/05 00:14:49;;;;;;;11.27;1.70;;;;;;;-145.18;100.00;47619.59;4988238;28;20645;-72
2022/01/05 00:17:15;;;;;;;10.83;1.83;;;;;;;-145.18;100.00;47625.47;4987829;28;20050;-72
2022/01/05 00:19:40;;;;;;;8.50;1.40;;;;;;;-145.18;100.00;47635.22;4987784;28;20042;-73
2022/01/05 00:22:06;;;;;;;9.93;1.33;;;;;;;-145.18;100.00;47633.28;4987748;28;20656;-72
2022/01/05 00:24:32;;;;;;;8.10;1.83;;;;;;;-145.18;100.00;47637.19;4987900;28;20062;-72
2022/01/05 00:26:58;;;;;;;10.77;1.87;;;;;;;-145.18;100.00;47639.13;4987030;28;20314;-73
2022/01/05 00:29:23;;;;;;;11.00;1.80;;;;;;;-145.18;100.00;47625.47;4988702;28;20402;-72
2022/01/05 00:31:49;;;;;;;15.47;2.20;;;;;;;-145.18;100.00;47637.19;4987530;28;20073;-72
2022/01/05 00:34:14;;;;;;;17.23;3.20;;;;;;;-145.18;100.00;47629.38;4987679;28;20038;-72
2022/01/05 00:36:40;;;;;;;17.73;2.07;;;;;;;-145.18;100.00;47648.91;4987401;28;20034;-73
2022/01/05 00:39:05;;;;;;;9.83;2.47;;;;;;;-145.18;100.00;47648.91;4987797;28;20054;-73
2022/01/05 00:41:31;;;;;;;9.03;1.93;;;;;;;-145.18;100.00;47629.38;4987823;28;20117;-73
2022/01/05 00:43:56;;;;;;;17.40;2.23;;;;;;;-145.18;100.00;47639.13;4987372;28;20046;-73
2022/01/05 00:46:22;;;;;;;10.53;2.57;;;;;;;-145.18;100.00;47656.72;4987683;28;20069;-73
2022/01/05 00:48:47;;;;;;;14.13;2.40;;;;;;;-145.18;100.00;47621.56;4990635;28;20045;-73
2022/01/05 00:51:15;;;;;;;20.43;2.80;;;;;;;-145.18;100.00;47652.81;4990514;28;20050;-73
2022/01/05 00:53:41;;;;;;;19.03;2.30;;;;;;;-145.18;100.00;47646.97;4990678;28;20057;-72
2022/01/05 00:56:06;;;;;;;11.50;1.77;;;;;;;-145.18;100.00;47629.38;4991500;28;20280;-73
2022/01/05 00:58:32;;;;;;;13.07;2.50;;;;;;;-145.18;100.00;47662.59;4990123;28;20112;-74
2022/01/05 01:00:57;;;;;;;8.70;1.77;;;;;;;-145.18;100.00;47635.22;4991507;28;20093;-73
2022/01/05 01:03:23;;;;;;;14.23;2.03;;;;;;;-145.18;100.00;47652.81;4991347;28;20042;-73
2022/01/05 01:05:48;;;;;;;12.50;1.83;;;;;;;-145.18;100.00;47652.81;4991106;28;20176;-72
2022/01/05 01:08:13;;;;;;;17.33;2.27;;;;;;;-145.18;100.00;47643.03;4991302;28;20045;-72
2022/01/05 01:10:39;;;;;;;8.47;2.20;;;;;;;-145.18;100.00;47666.50;4991441;28;20049;-73
2022/01/05 01:13:05;;;;;;;8.13;1.30;;;;;;;-145.18;100.00;47652.81;4990943;28;20050;-73
2022/01/05 01:15:30;;;;;;;8.23;1.60;;;;;;;-145.18;100.00;47635.22;4991467;28;20046;-72
2022/01/05 01:17:56;;;;;;;11.83;1.70;;;;;;;-145.18;100.00;47643.03;4990719;28;20084;-72
2022/01/05 01:20:21;;;;;;;11.67;1.70;;;;;;;-145.18;100.00;47637.19;4990920;28;20057;-72
2022/01/05 01:22:48;;;;;;;9.33;1.83;;;;;;;-145.18;100.00;47662.59;4989304;28;20069;-72
2022/01/05 01:25:14;;;;;;;14.37;1.63;;;;;;;-145.18;100.00;47639.13;4990552;28;20050;-72
2022/01/05 01:27:43;;;;;;;12.40;1.80;;;;;;;-145.18;100.00;47660.63;4990714;28;20278;-73
2022/01/05 01:30:10;;;;;;;14.60;2.57;;;;;;;-145.18;100.00;47660.63;4991042;28;20050;-73
2022/01/05 01:32:36;;;;;;;14.87;2.20;;;;;;;-145.18;100.00;47650.88;4990630;28;20773;-72
2022/01/05 01:35:06;;;;;;;13.07;1.60;;;;;;;-145.18;100.00;47648.91;4990519;28;20309;-72
2022/01/05 01:37:31;;;;;;;11.40;1.93;;;;;;;-145.18;100.00;47648.91;4990602;28;20049;-72
2022/01/05 01:39:56;;;;;;;19.10;3.40;;;;;;;-145.18;100.00;47652.81;4988446;28;20276;-72
2022/01/05 01:42:22;;;;;;;10.80;1.93;;;;;;;-145.18;100.00;47654.78;4990413;28;20038;-72
2022/01/05 01:44:47;;;;;;;7.27;1.60;;;;;;;-145.18;100.00;47639.13;4990491;28;20045;-73
2022/01/05 01:47:13;;;;;;;11.30;1.63;;;;;;;-145.18;100.00;47613.75;4988230;28;20046;-73
2022/01/05 01:49:39;;;;;;;3.70;1.10;;;;;;;-145.18;100.00;47666.50;4991227;28;20073;-72
2022/01/05 01:52:05;;;;;;;13.03;1.27;;;;;;;-145.18;100.00;47643.03;4989913;28;20100;-72
2022/01/05 01:54:31;;;;;;;12.40;1.53;;;;;;;-145.18;100.00;47648.91;4990717;28;20418;-72
2022/01/05 01:56:59;;;;;;;13.60;2.00;;;;;;;-145.18;100.00;47654.78;4990020;28;20287;-72
2022/01/05 01:59:25;;;;;;;17.77;2.03;;;;;;;-145.18;100.00;47646.97;4989859;28;20132;-72
2022/01/05 02:01:51;;;;;;;19.37;2.13;;;;;;;-145.18;100.00;47645.00;4989731;28;20741;-72
2022/01/05 02:04:16;;;;;;;20.47;1.83;;;;;;;-145.18;100.00;47648.91;4990514;28;20365;-73
2022/01/05 02:06:41;;;;;;;14.67;1.73;;;;;;;-145.18;100.00;47654.78;4990623;28;20423;-73
2022/01/05 02:09:07;;;;;;;12.90;2.50;;;;;;;-145.18;100.00;47652.81;4990281;28;20055;-72
2022/01/05 02:11:37;;;;;;;11.60;1.50;;;;;;;-145.18;100.00;47656.72;4988913;28;20181;-73
2022/01/05 02:14:02;;;;;;;12.90;1.60;;;;;;;-145.18;100.00;47652.81;4989613;28;20145;-72
2022/01/05 02:16:32;;;;;;;5.87;1.10;;;;;;;-145.18;100.00;47658.69;4989789;28;20632;-72
2022/01/05 02:18:59;;;;;;;9.60;1.60;;;;;;;-145.18;100.00;47658.69;4988789;28;20050;-72
2022/01/05 02:21:34;;;;;;;8.77;1.40;;;;;;;-145.18;100.00;47660.63;4988904;28;20280;-73
2022/01/05 02:24:01;;;;;;;7.60;1.38;;;;;;;-145.18;100.00;47668.44;4989651;28;20598;-73
2022/01/05 02:26:27;;;;;;;25.20;3.47;;;;;;;-145.18;100.00;47668.44;4989970;28;20384;-73
2022/01/05 02:28:52;;;;;;;17.20;1.80;;;;;;;-145.18;100.00;47670.41;4989646;28;20042;-73
2022/01/05 02:31:18;;;;;;;8.00;1.23;;;;;;;-145.18;100.00;47652.81;4990398;28;20268;-72
2022/01/05 02:33:44;;;;;;;17.47;2.20;;;;;;;-145.18;100.00;47650.88;4989509;28;20092;-72
2022/01/05 02:36:12;;;;;;;12.10;2.00;;;;;;;-145.18;100.00;47660.63;4989867;28;20070;-72
2022/01/05 02:38:38;;;;;;;5.03;0.77;;;;;;;-145.18;100.00;47645.00;4989406;28;20117;-72
2022/01/05 02:41:08;;;;;;;8.17;1.30;;;;;;;-145.18;100.00;47668.44;4989403;28;20352;-72
2022/01/05 02:43:35;;;;;;;17.67;2.53;;;;;;;-145.18;100.00;47645.00;4989827;28;20034;-72
2022/01/05 02:46:00;;;;;;;10.50;1.70;;;;;;;-145.18;100.00;47641.09;4989408;28;20304;-73
2022/01/05 02:48:25;;;;;;;8.40;1.43;;;;;;;-145.18;100.00;47654.78;4989968;28;20709;-73
2022/01/05 02:50:55;;;;;;;12.60;1.83;;;;;;;-145.18;100.00;47652.81;4987881;28;20503;-73
2022/01/05 02:53:20;;;;;;;15.67;1.60;;;;;;;-145.18;100.00;47660.63;4989297;28;20571;-73
2022/01/05 02:55:46;;;;;;;15.47;1.70;;;;;;;-145.18;100.00;47660.63;4989362;28;20348;-73
2022/01/05 02:58:11;;;;;;;11.47;1.70;;;;;;;-145.18;100.00;47670.41;4989284;28;20311;-73
2022/01/05 03:00:36;;;;;;;18.33;1.77;;;;;;;-145.18;100.00;47648.91;4989437;28;20039;-73
2022/01/05 03:03:02;;;;;;;12.70;2.13;;;;;;;-145.18;100.00;47662.59;4988774;28;20054;-73
2022/01/05 03:05:27;;;;;;;10.70;1.80;;;;;;;-145.18;100.00;47648.91;4989102;28;20078;-73
2022/01/05 03:07:53;;;;;;;11.37;1.37;;;;;;;-145.18;100.00;47645.00;4988769;28;20046;-73
2022/01/05 03:10:19;;;;;;;18.60;4.00;;;;;;;-145.18;100.00;47654.78;4989358;28;20082;-72
2022/01/05 03:12:44;;;;;;;15.90;2.17;;;;;;;-145.18;100.00;47682.13;4988438;28;20713;-72
2022/01/05 03:15:10;;;;;;;10.77;1.83;;;;;;;-145.18;100.00;47645.00;4988879;28;20054;-73
2022/01/05 03:17:36;;;;;;;10.60;2.03;;;;;;;-145.18;100.00;47658.69;4988175;28;20047;-73
2022/01/05 03:20:02;;;;;;;11.57;2.20;;;;;;;-145.18;100.00;47645.00;4989653;28;20042;-73
2022/01/05 03:22:28;;;;;;;20.37;2.27;;;;;;;-145.18;100.00;47627.41;4988632;28;20038;-73
2022/01/05 03:24:53;;;;;;;14.00;2.20;;;;;;;-145.18;100.00;47670.41;4988568;28;20272;-73
2022/01/05 03:27:19;;;;;;;16.73;2.63;;;;;;;-145.18;100.00;47664.53;4988542;28;20034;-73
2022/01/05 03:29:44;;;;;;;17.00;3.23;;;;;;;-145.18;100.00;47672.34;4988744;28;20141;-73
2022/01/05 03:32:10;;;;;;;10.80;1.60;;;;;;;-145.18;100.00;47652.81;4988431;28;20037;-73
2022/01/05 03:34:37;;;;;;;17.57;2.00;;;;;;;-145.18;100.00;47668.44;4987834;28;20042;-73
2022/01/05 03:37:03;;;;;;;14.70;2.30;;;;;;;-145.18;100.00;47637.19;4988121;28;20096;-73
2022/01/05 03:39:28;;;;;;;13.23;2.37;;;;;;;-145.18;100.00;47639.13;4988839;28;20038;-73
2022/01/05 03:41:53;;;;;;;18.47;2.27;;;;;;;-145.18;100.00;47666.50;4988002;28;20031;-73
2022/01/05 03:44:19;;;;;;;17.90;2.33;;;;;;;-145.18;100.00;47660.63;4987700;28;20100;-73
2022/01/05 03:46:44;;;;;;;17.17;2.80;;;;;;;-145.18;100.00;47645.00;4988038;28;20117;-73
2022/01/05 03:49:10;;;;;;;15.17;2.80;;;;;;;-145.18;100.00;47623.50;4989274;28;20042;-73
2022/01/05 03:51:35;;;;;;;23.83;2.43;;;;;;;-145.18;100.00;47654.78;4988401;28;20049;-73
2022/01/05 03:54:01;;;;;;;16.73;2.13;;;;;;;-145.18;100.00;47648.91;4987966;28;20133;-73
2022/01/05 03:56:26;;;;;;;17.37;2.53;;;;;;;-145.18;100.00;47643.03;4988570;28;20041;-73
2022/01/05 03:58:51;;;;;;;16.67;1.73;;;;;;;-145.18;100.00;47660.63;4987904;28;20042;-73
2022/01/05 04:01:17;;;;;;;14.70;2.30;;;;;;;-145.18;100.00;47656.72;4988316;28;20076;-73
2022/01/05 04:03:42;;;;;;;17.17;2.10;;;;;;;-145.18;100.00;47641.09;4987829;28;20526;-73
2022/01/05 04:06:07;;;;;;;18.43;2.53;;;;;;;-145.18;100.00;47658.69;4988386;28;20047;-73
2022/01/05 04:08:33;;;;;;;18.37;2.07;;;;;;;-145.18;100.00;47643.03;4987842;28;20547;-73
2022/01/05 04:10:58;;;;;;;15.80;2.57;;;;;;;-145.18;100.00;47650.88;4987956;28;20142;-73
2022/01/05 04:13:24;;;;;;;16.37;1.80;;;;;;;-145.18;100.00;47633.28;4987991;28;20117;-73
2022/01/05 04:15:49;;;;;;;14.07;1.73;;;;;;;-145.18;100.00;47637.19;4987372;28;20061;-73
2022/01/05 04:18:15;;;;;;;15.33;2.53;;;;;;;-145.18;100.00;47639.13;4988441;28;20042;-73
2022/01/05 04:20:40;;;;;;;11.90;1.70;;;;;;;-145.18;100.00;47635.22;4987689;28;20052;-73
2022/01/05 04:23:06;;;;;;;13.00;2.60;;;;;;;-145.18;100.00;47637.19;4987351;28;20631;-73
2022/01/05 04:25:33;;;;;;;23.17;2.47;;;;;;;-145.18;100.00;47629.38;4988381;28;20430;-73
2022/01/05 04:27:59;;;;;;;20.97;3.97;;;;;;;-145.18;100.00;47631.31;4987490;28;20272;-73
2022/01/05 04:30:25;;;;;;;15.83;2.23;;;;;;;-145.18;100.00;47627.41;4987836;28;20272;-73
2022/01/05 04:32:50;;;;;;;19.03;2.27;;;;;;;-145.18;100.00;47629.38;4988043;28;20283;-73
2022/01/05 04:35:15;;;;;;;22.77;2.30;;;;;;;-145.18;100.00;47613.75;4988133;28;20063;-73
2022/01/05 04:37:41;;;;;;;12.43;2.20;;;;;;;-145.18;100.00;47613.75;4987198;28;20124;-73
2022/01/05 04:40:08;;;;;;;17.40;2.17;;;;;;;-145.18;100.00;47629.38;4987657;28;20137;-72
2022/01/05 04:42:34;;;;;;;16.37;1.83;;;;;;;-145.18;100.00;47613.75;4987323;28;20526;-72
2022/01/05 04:44:59;;;;;;;15.90;2.17;;;;;;;-145.18;100.00;47607.88;4987482;28;20485;-73
2022/01/05 04:47:24;;;;;;;22.70;2.43;;;;;;;-145.18;100.00;47613.75;4988233;28;20053;-73
2022/01/05 04:49:50;;;;;;;12.90;1.90;;;;;;;-145.18;100.00;47611.78;4987879;28;20495;-73
2022/01/05 04:52:16;;;;;;;19.77;2.40;;;;;;;-145.18;100.00;47613.75;4987566;28;20571;-73
2022/01/05 04:54:41;;;;;;;18.17;3.33;;;;;;;-145.18;100.00;47609.84;4986960;28;20096;-73
2022/01/05 04:57:07;;;;;;;13.40;3.53;;;;;;;-145.18;100.00;47613.75;4987402;28;20046;-73
2022/01/05 04:59:33;;;;;;;19.97;7.27;;;;;;;-145.18;100.00;47609.84;5002791;28;20406;-73
2022/01/05 05:01:58;;;;;;;17.23;2.87;;;;;;;-145.18;100.00;47609.84;4987797;28;20042;-73
2022/01/05 05:04:24;;;;;;;13.60;2.40;;;;;;;-145.18;100.00;47611.78;4987786;28;20283;-73
2022/01/05 05:06:50;;;;;;;15.33;2.57;;;;;;;-145.18;100.00;47598.09;4986910;28;20043;-73
2022/01/05 05:09:16;;;;;;;20.43;2.63;;;;;;;-145.18;100.00;47619.59;4987349;28;20525;-73
2022/01/05 05:11:41;;;;;;;16.93;2.23;;;;;;;-145.18;100.00;47621.56;4987188;28;20506;-73
2022/01/05 05:14:06;;;;;;;20.87;3.03;;;;;;;-145.18;100.00;47609.84;4987129;28;20288;-73
2022/01/05 05:16:32;;;;;;;13.60;2.23;;;;;;;-145.18;100.00;47621.56;4986524;28;20625;-73
2022/01/05 05:18:57;;;;;;;16.43;2.27;;;;;;;-145.18;100.00;47625.47;4986965;28;20061;-73
2022/01/05 05:21:22;;;;;;;16.30;2.50;;;;;;;-145.18;100.00;47598.09;4986090;28;20053;-73
2022/01/05 05:23:48;;;;;;;24.77;2.57;;;;;;;-145.18;100.00;47594.19;4985955;28;20065;-73
2022/01/05 05:26:13;;;;;;;25.70;4.23;;;;;;;-145.18;100.00;47594.19;4987332;28;20042;-73
2022/01/05 05:28:38;;;;;;;7.43;1.67;;;;;;;-145.18;100.00;47613.75;4986953;28;20046;-73
2022/01/05 05:31:04;;;;;;;12.37;1.73;;;;;;;-145.18;100.00;47605.94;4986797;28;20153;-73
2022/01/05 05:33:29;;;;;;;26.07;3.27;;;;;;;-145.18;100.00;47598.09;4987249;28;20042;-73
2022/01/05 05:35:55;;;;;;;12.93;2.10;;;;;;;-145.18;100.00;47607.88;4990202;28;20045;-73
2022/01/05 05:38:20;;;;;;;10.83;2.00;;;;;;;-145.18;100.00;47605.94;4989797;28;20096;-73
2022/01/05 05:40:45;;;;;;;17.63;3.13;;;;;;;-145.18;100.00;47600.06;4989764;28;20054;-73
2022/01/05 05:43:11;;;;;;;11.53;2.27;;;;;;;-145.18;100.00;47598.09;4990212;28;20043;-74
2022/01/05 05:45:38;;;;;;;23.47;3.00;;;;;;;-145.18;100.00;47617.66;4991091;28;20069;-73
2022/01/05 05:48:04;;;;;;;14.87;1.50;;;;;;;-145.18;100.00;47605.94;5004867;28;20041;-73
2022/01/05 05:50:29;;;;;;;17.70;2.30;;;;;;;-145.18;100.00;47600.06;4990651;28;20299;-73
2022/01/05 05:52:55;;;;;;;17.73;2.30;;;;;;;-145.18;100.00;47594.19;4989933;28;20260;-73
2022/01/05 05:55:20;;;;;;;17.30;2.70;;;;;;;-145.18;100.00;47607.88;4990359;28;20052;-73
2022/01/05 05:57:46;;;;;;;13.47;2.67;;;;;;;-145.18;100.00;47592.25;4989933;28;20045;-74
2022/01/05 06:00:11;;;;;;;15.77;2.13;;;;;;;-145.18;100.00;47598.09;4991216;28;20045;-73
2022/01/05 06:02:37;;;;;;;13.80;2.10;;;;;;;-145.18;100.00;47596.16;4990192;28;20045;-73
2022/01/05 06:05:03;;;;;;;9.73;1.90;;;;;;;-145.18;100.00;47590.28;4989657;28;20031;-73
2022/01/05 06:07:28;;;;;;;20.00;2.67;;;;;;;-145.18;100.00;47592.25;4989961;28;20065;-73
2022/01/05 06:09:54;;;;;;;10.27;2.20;;;;;;;-145.18;100.00;47613.75;4990217;28;20288;-72
2022/01/05 06:12:19;;;;;;;7.87;1.60;;;;;;;-145.18;100.00;47592.25;4989924;28;20517;-73
2022/01/05 06:14:45;;;;;;;20.00;2.53;;;;;;;-145.18;100.00;47602.00;4989981;28;20114;-72
2022/01/05 06:17:10;;;;;;;18.10;4.13;;;;;;;-145.18;100.00;47613.75;4989155;28;20507;-73
2022/01/05 06:19:36;;;;;;;18.80;2.63;;;;;;;-145.18;100.00;47596.16;4989614;28;20058;-73
2022/01/05 06:22:01;;;;;;;26.50;2.47;;;;;;;-145.18;100.00;47582.47;4982559;28;20502;-72
2022/01/05 06:24:26;;;;;;;15.63;2.50;;;;;;;-145.18;100.00;47590.28;4982648;28;20042;-73
2022/01/05 06:26:52;;;;;;;13.90;1.60;;;;;;;-145.18;100.00;47598.09;4986689;28;20667;-73
2022/01/05 06:29:19;;;;;;;17.30;2.27;;;;;;;-145.18;100.00;47592.25;4976813;28;20054;-73
2022/01/05 06:31:45;;;;;;;19.00;2.03;;;;;;;-145.18;100.00;47578.56;4984451;28;20046;-73
2022/01/05 06:34:11;;;;;;;19.00;2.73;;;;;;;-145.18;100.00;47592.25;4988738;28;20270;-73
2022/01/05 06:36:36;;;;;;;11.23;1.80;;;;;;;-145.18;100.00;47588.34;4989839;28;20044;-73
2022/01/05 06:39:02;;;;;;;15.83;2.87;;;;;;;-145.18;100.00;47590.28;4988906;28;20852;-73
2022/01/05 06:41:28;;;;;;;15.03;2.67;;;;;;;-145.18;100.00;47580.53;4989378;28;20049;-73
2022/01/05 06:43:53;;;;;;;17.70;2.97;;;;;;;-145.18;100.00;47561.00;4989959;28;20343;-73
2022/01/05 06:46:19;;;;;;;29.97;2.27;;;;;;;-145.18;100.00;47582.47;4988079;28;20041;-73
2022/01/05 06:48:44;;;;;;;10.97;1.70;;;;;;;-145.18;100.00;47574.66;4988964;28;20058;-74
2022/01/05 06:51:09;;;;;;;10.23;1.90;;;;;;;-145.18;100.00;47576.63;4989441;28;20038;-73
2022/01/05 06:53:35;;;;;;;17.13;2.30;;;;;;;-145.18;100.00;47594.19;4979387;28;20035;-73
2022/01/05 06:56:00;;;;;;;19.10;2.30;;;;;;;-145.18;100.00;47580.53;4988415;28;20121;-73
2022/01/05 06:58:26;;;;;;;20.97;2.90;;;;;;;-145.18;100.00;47578.56;4988316;28;20038;-73
2022/01/05 07:00:51;;;;;;;18.10;1.83;;;;;;;-145.18;100.00;47592.25;4979759;28;20093;-73
2022/01/05 07:03:16;;;;;;;9.13;1.43;;;;;;;-145.18;100.00;47578.56;4981541;28;20066;-73
2022/01/05 07:05:42;;;;;;;11.30;1.70;;;;;;;-145.18;100.00;47592.25;4987983;28;20054;-73
2022/01/05 07:08:07;;;;;;;9.10;2.33;;;;;;;-145.18;100.00;47586.38;4987889;28;20084;-73
2022/01/05 07:10:33;;;;;;;22.57;2.47;;;;;;;-145.18;100.00;47590.28;4988646;28;20121;-73
2022/01/05 07:12:58;;;;;;;16.47;2.50;;;;;;;-145.18;100.00;47594.19;4988878;28;20081;-73
2022/01/05 07:15:25;;;;;;;15.97;1.83;;;;;;;-145.18;100.00;47586.38;4983922;28;20061;-73
2022/01/05 07:17:51;;;;;;;21.93;2.50;;;;;;;-145.18;100.00;47582.47;4986660;28;20137;-73
2022/01/05 07:20:16;;;;;;;23.13;2.73;;;;;;;-145.18;100.00;47568.81;4988557;28;20280;-73
2022/01/05 07:22:43;;;;;;;14.67;2.00;;;;;;;-145.18;100.00;47590.28;4988064;28;20335;-74
2022/01/05 07:25:09;;;;;;;18.93;2.43;;;;;;;-145.18;100.00;47576.63;4988697;28;20030;-73
2022/01/05 07:27:35;;;;;;;8.63;1.33;;;;;;;-145.18;100.00;47600.06;4989345;28;20268;-73
2022/01/05 07:30:00;;;;;;;16.63;2.30;;;;;;;-145.18;100.00;47576.63;4988242;28;20288;-73
2022/01/05 07:32:28;;;;;;;14.63;2.03;;;;;;;-145.18;100.00;47582.47;4988412;28;20069;-73
2022/01/05 07:34:54;;;;;;;13.40;3.10;;;;;;;-145.18;100.00;47596.16;4987742;28;20069;-73
2022/01/05 07:37:19;;;;;;;16.97;1.70;;;;;;;-145.18;100.00;47586.38;4987361;28;20269;-73
2022/01/05 07:39:45;;;;;;;21.03;2.83;;;;;;;-145.18;100.00;47568.81;4986501;28;20034;-73
2022/01/05 07:42:10;;;;;;;11.73;1.60;;;;;;;-145.18;100.00;47580.53;4988429;28;20057;-73
2022/01/05 07:44:36;;;;;;;21.53;2.80;;;;;;;-145.18;100.00;47561.00;4988130;28;20034;-73
2022/01/05 07:47:02;;;;;;;25.43;2.97;;;;;;;-145.18;100.00;47594.19;4987247;28;20125;-73
2022/01/05 07:49:27;;;;;;;17.40;2.80;;;;;;;-145.18;100.00;47588.34;4979941;28;20042;-73
2022/01/05 07:51:52;;;;;;;16.57;2.17;;;;;;;-145.18;100.00;47564.91;5017533;28;20125;-73
2022/01/05 07:54:18;;;;;;;19.77;2.90;;;;;;;-145.18;100.00;47584.44;4987955;28;20050;-73
2022/01/05 07:56:43;;;;;;;14.20;2.10;;;;;;;-145.18;100.00;47582.47;4986801;28;20058;-73
2022/01/05 07:59:09;;;;;;;15.57;1.53;;;;;;;-145.18;100.00;47623.50;4987053;28;20069;-73
2022/01/05 08:01:35;;;;;;;20.23;2.43;;;;;;;-145.18;100.00;47598.09;4984990;28;20077;-73
2022/01/05 08:04:00;;;;;;;15.73;2.33;;;;;;;-145.18;100.00;47576.63;4985662;28;20053;-73
2022/01/05 08:06:25;;;;;;;22.97;2.83;;;;;;;-145.18;100.00;47584.44;4986568;28;20062;-73
2022/01/05 08:08:51;;;;;;;29.07;3.40;;;;;;;-145.18;100.00;47574.66;4985291;28;20049;-73
2022/01/05 08:11:17;;;;;;;18.83;2.73;;;;;;;-145.18;100.00;47586.38;5001046;28;20092;-73
2022/01/05 08:13:43;;;;;;;20.07;3.23;;;;;;;-145.18;100.00;47568.81;4993013;28;20727;-73
2022/01/05 08:16:09;;;;;;;20.87;2.63;;;;;;;-145.18;100.00;47592.25;4991364;28;21192;-73
2022/01/05 08:18:36;;;;;;;14.47;1.40;;;;;;;-145.18;100.00;47582.47;4990867;28;20121;-73
2022/01/05 08:21:02;;;;;;;12.47;2.53;;;;;;;-145.18;100.00;47582.47;4991619;28;20275;-73
2022/01/05 08:23:27;;;;;;;30.43;3.13;;;;;;;-145.18;100.00;47566.84;4990139;28;20046;-73
2022/01/05 08:25:53;;;;;;;17.53;4.13;;;;;;;-145.18;100.00;47570.75;4995606;28;20362;-73
2022/01/05 08:28:19;;;;;;;20.20;2.57;;;;;;;-145.18;100.00;47570.75;4990609;28;20051;-73
2022/01/05 08:30:45;;;;;;;18.60;2.50;;;;;;;-145.18;100.00;47553.16;4993757;28;20295;-73
2022/01/05 08:33:12;;;;;;;16.57;2.53;;;;;;;-145.18;100.00;47574.66;4983646;28;20268;-74
2022/01/05 08:35:39;;;;;;;11.03;2.37;;;;;;;-145.18;100.00;47547.31;4984820;28;20097;-73
2022/01/05 08:38:05;;;;;;;21.20;2.57;;;;;;;-145.18;100.00;47551.22;4983012;28;20335;-73
2022/01/05 08:40:32;;;;;;;26.73;3.90;;;;;;;-145.18;100.00;47555.13;4983173;28;20287;-73
2022/01/05 08:42:58;;;;;;;16.43;3.13;;;;;;;-145.18;100.00;47555.13;4983337;28;20296;-73
2022/01/05 08:45:25;;;;;;;19.27;1.80;;;;;;;-145.18;100.00;47561.00;4984891;28;20268;-73
2022/01/05 08:47:52;;;;;;;13.47;2.47;;;;;;;-145.18;100.00;47566.84;4984228;28;20035;-74
2022/01/05 08:50:27;;;;;;;20.07;2.57;;;;;;;-145.18;100.00;47570.75;4984667;28;20296;-73
2022/01/05 08:52:54;;;;;;;11.68;1.75;;;;;;;-145.18;100.00;47578.56;4985056;28;20252;-74
2022/01/05 08:55:22;;;;;;;20.97;2.73;;;;;;;-145.18;100.00;47570.75;4984533;28;20046;-73
2022/01/05 08:57:48;;;;;;;21.90;3.30;;;;;;;-145.18;100.00;47572.72;4984130;28;20272;-74
2022/01/05 09:00:15;;;;;;;13.37;2.37;;;;;;;-145.18;100.00;47559.03;4983266;28;20282;-73
2022/01/05 09:02:41;;;;;;;23.50;2.50;;;;;;;-145.18;100.00;47561.00;4984590;28;20367;-73
2022/01/05 09:05:07;;;;;;;15.67;2.30;;;;;;;-145.18;100.00;47561.00;4985381;28;20908;-73
2022/01/05 09:07:33;;;;;;;22.77;3.30;;;;;;;-145.18;100.00;47562.94;4979734;28;20089;-73
2022/01/05 09:09:59;;;;;;;21.23;3.13;;;;;;;-145.18;100.00;47574.66;4988725;28;20288;-73
2022/01/05 09:12:24;;;;;;;17.70;2.67;;;;;;;-145.18;100.00;47547.31;4987654;28;20283;-73
2022/01/05 09:14:50;;;;;;;28.20;2.67;;;;;;;-145.18;100.00;47564.91;4986917;28;20054;-73
2022/01/05 09:17:16;;;;;;;12.43;2.37;;;;;;;-145.18;100.00;47566.84;4985275;28;20129;-73
2022/01/05 09:19:42;;;;;;;22.63;2.00;;;;;;;-145.18;100.00;47561.00;5017630;28;20046;-73
2022/01/05 09:22:08;;;;;;;18.53;2.93;;;;;;;-145.18;100.00;47572.72;4988636;28;20038;-74
2022/01/05 09:24:36;;;;;;;16.50;3.37;;;;;;;-145.18;100.00;47551.22;4985861;28;20264;-73
2022/01/05 09:27:04;;;;;;;16.33;2.53;;;;;;;-145.18;100.00;47566.84;4988674;28;20265;-74
2022/01/05 09:29:33;;;;;;;17.60;2.33;;;;;;;-145.18;100.00;47559.03;4987521;28;20701;-74
2022/01/05 09:32:03;;;;;;;15.70;1.93;;;;;;;-145.18;100.00;47547.31;4988496;28;20930;-74
2022/01/05 09:34:33;;;;;;;14.70;2.73;;;;;;;-145.18;100.00;47547.31;5041438;22;20314;-73
2022/01/05 09:37:08;;;;;;;19.27;3.40;;;;;;;-145.18;100.00;47559.03;5002884;28;20267;-73
2022/01/05 09:42:17;;;;;;;17.20;3.23;;;;;;;-145.18;100.00;47559.03;5000981;28;20521;-74
2022/01/05 09:44:45;;;;;;;25.37;3.67;;;;;;;-145.18;100.00;47576.63;5004406;28;20288;-74
2022/01/05 09:47:10;;;;;;;19.93;2.23;;;;;;;-145.18;100.00;47551.22;5004214;28;20041;-74
2022/01/05 09:50:03;;;;;;;20.33;3.17;;;;;;;-145.18;100.00;47545.34;5010237;28;20275;-74
2022/01/05 09:52:31;;;;;;;18.70;3.17;;;;;;;-145.18;100.00;47555.13;5000733;28;20112;-74
2022/01/05 09:54:57;;;;;;;17.00;3.63;;;;;;;-145.18;100.00;47547.31;4998602;28;20371;-73
2022/01/05 09:57:23;;;;;;;17.37;2.97;;;;;;;-145.18;100.00;47566.84;4998169;28;20647;-73
2022/01/05 09:59:50;;;;;;;27.10;3.63;;;;;;;-145.18;100.00;47564.91;4999472;28;20045;-74
2022/01/05 10:02:16;;;;;;;16.23;2.70;;;;;;;-145.18;100.00;47557.06;5024486;28;20787;-73
2022/01/05 10:04:41;;;;;;;16.63;3.70;;;;;;;-145.18;100.00;47549.25;4997924;28;20275;-73
2022/01/05 10:07:11;;;;;;;14.57;2.43;;;;;;;-145.18;100.00;47553.16;4997191;28;20278;-73
2022/01/05 10:09:42;;;;;;;23.43;2.80;;;;;;;-145.18;100.00;47547.31;5001372;28;20520;-74
2022/01/05 10:12:09;;;;;;;15.70;2.50;;;;;;;-145.18;100.00;47549.25;5006314;28;20275;-74
2022/01/05 10:14:38;;;;;;;28.70;2.50;;;;;;;-145.18;100.00;47541.44;5003163;28;20481;-74
2022/01/05 10:17:04;;;;;;;19.57;2.77;;;;;;;-145.18;100.00;47553.16;4999995;28;20719;-74
2022/01/05 10:19:30;;;;;;;17.43;2.43;;;;;;;-145.18;100.00;47541.44;4996045;28;20279;-74
2022/01/05 10:21:57;;;;;;;15.57;1.53;;;;;;;-145.18;100.00;47531.69;4999702;28;20291;-73
2022/01/05 10:24:46;;;;;;;16.57;3.00;;;;;;;-145.18;100.00;47561.00;4995220;28;20046;-73
2022/01/05 10:27:19;;;;;;;23.07;5.13;;;;;;;-145.18;100.00;47543.41;4997287;28;20307;-74
2022/01/05 10:29:52;;;;;;;23.37;4.80;;;;;;;-145.18;100.00;47547.31;5002305;28;20318;-74
2022/01/05 10:32:18;;;;;;;22.87;3.30;;;;;;;-145.18;100.00;47551.22;5009102;28;20682;-74
2022/01/05 10:35:01;;;;;;;9.13;2.77;;;;;;;-145.18;100.00;47533.63;5008803;28;20291;-74
2022/01/05 10:37:27;;;;;;;20.27;2.93;;;;;;;-145.18;100.00;47553.16;5008440;28;20176;-73
2022/01/05 10:40:20;;;;;;;23.73;3.33;;;;;;;-145.18;100.00;47539.50;4994063;28;20347;-73
2022/01/05 10:42:51;;;;;;;20.77;3.73;;;;;;;-145.18;100.00;47523.88;4989772;28;20038;-73
2022/01/05 10:45:21;;;;;;;27.17;3.63;;;;;;;-145.18;100.00;47514.09;4989433;28;20271;-73
2022/01/05 10:48:04;;;;;;;19.33;2.87;;;;;;;-145.18;100.00;47523.88;4989514;28;20256;-72
2022/01/05 10:50:29;;;;;;;30.37;3.73;;;;;;;-145.18;100.00;47523.88;5001928;28;20374;-73
2022/01/05 10:52:57;;;;;;;17.87;2.33;;;;;;;-145.18;100.00;47535.59;5008194;28;20350;-72
2022/01/05 10:55:25;;;;;;;13.83;2.60;;;;;;;-145.18;100.00;47539.50;5001444;28;20049;-72
2022/01/05 10:58:04;;;;;;;31.03;3.70;;;;;;;-145.18;100.00;47529.72;5008619;28;20787;-72
2022/01/05 11:00:41;;;;;;;24.23;3.97;;;;;;;-145.18;100.00;47537.53;5008504;28;20286;-72